createdAt,value
2016-03-13T00:00:15.289Z,69.09
2016-03-13T00:01:15.624Z,68.81
2016-03-13T00:02:14.783Z,69
2016-03-13T00:03:14.691Z,69.34
2016-03-13T00:04:14.679Z,69.06
2016-03-13T00:05:14.665Z,69.06
2016-03-13T00:06:14.652Z,69.25
2016-03-13T00:07:14.655Z,69.44
2016-03-13T00:08:14.642Z,69.63
2016-03-13T00:09:14.614Z,69.82
2016-03-13T00:10:16.085Z,70.01
2016-03-13T00:11:14.823Z,69.63
2016-03-13T00:12:15.435Z,69.82
2016-03-13T00:13:14.860Z,69.72
2016-03-13T00:14:15.502Z,69.63
2016-03-13T00:15:28.739Z,69.44
2016-03-13T00:17:14.870Z,69.91
2016-03-13T00:18:14.529Z,70.29
2016-03-13T00:19:14.516Z,69.91
2016-03-13T00:20:14.503Z,70.29
2016-03-13T00:21:14.740Z,70.57
2016-03-13T00:22:14.477Z,70.57
2016-03-13T00:23:14.464Z,71.04
2016-03-13T00:24:28.639Z,70.86
2016-03-13T00:25:15.188Z,70.67
2016-03-13T00:26:14.456Z,70.57
2016-03-13T00:27:14.412Z,70.86
2016-03-13T00:28:14.399Z,70.86
2016-03-13T00:29:14.699Z,71.42
2016-03-13T00:30:14.686Z,71.04
2016-03-13T00:31:14.392Z,71.04
2016-03-13T00:32:14.364Z,70.95
2016-03-13T00:33:14.350Z,70.86
2016-03-13T00:34:14.338Z,70.86
2016-03-13T00:35:14.324Z,70.86
2016-03-13T00:36:14.327Z,70.92
2016-03-13T00:37:14.313Z,71.23
2016-03-13T00:38:14.286Z,71.04
2016-03-13T00:39:14.277Z,71.23
2016-03-13T00:40:14.265Z,71.61
2016-03-13T00:41:14.268Z,71.33
2016-03-13T00:42:14.239Z,71.23
2016-03-13T00:43:14.226Z,70.67
2016-03-13T00:44:14.213Z,71.33
2016-03-13T00:45:14.215Z,71.42
2016-03-13T00:46:14.203Z,70.86
2016-03-13T00:47:14.189Z,71.33
2016-03-13T00:48:14.177Z,70.86
2016-03-13T00:49:14.164Z,70.86
2016-03-13T00:50:14.151Z,71.33
2016-03-13T00:51:14.139Z,70.95
2016-03-13T00:52:14.125Z,71.61
2016-03-13T00:53:14.112Z,71.33
2016-03-13T00:54:14.114Z,71.33
2016-03-13T00:55:14.102Z,71.61
2016-03-13T00:56:14.089Z,71.71
2016-03-13T00:57:14.075Z,71.3
2016-03-13T00:58:14.078Z,71.23
2016-03-13T00:59:14.050Z,71.33
2016-03-13T01:00:14.038Z,71.2
2016-03-13T01:01:14.041Z,71.2
2016-03-13T01:02:14.011Z,71.77
2016-03-13T01:03:13.999Z,71.95
2016-03-13T01:04:13.985Z,71.86
2016-03-13T01:05:13.972Z,72.05
2016-03-13T01:06:13.959Z,71.95
2016-03-13T01:07:13.947Z,71.77
2016-03-13T01:08:13.934Z,72.14
2016-03-13T01:09:13.921Z,72.05
2016-03-13T01:10:13.924Z,72.05
2016-03-13T01:11:13.911Z,72.05
2016-03-13T01:12:13.913Z,72.33
2016-03-13T01:13:13.884Z,72.71
2016-03-13T01:14:13.871Z,72.71
2016-03-13T01:15:13.859Z,72.71
2016-03-13T01:16:13.861Z,72.52
2016-03-13T01:17:15.442Z,72.33
2016-03-13T01:18:14.055Z,72.52
2016-03-13T01:19:15.354Z,72.8
2016-03-13T01:20:13.810Z,72.71
2016-03-13T01:21:13.625Z,72.62
2016-03-13T01:22:14.565Z,72.99
2016-03-13T01:23:13.755Z,72.8
2016-03-13T01:24:13.758Z,72.8
2016-03-13T01:25:13.744Z,72.8
2016-03-13T01:26:13.733Z,72.62
2016-03-13T01:27:13.797Z,72.62
2016-03-13T01:28:13.894Z,72.71
2016-03-13T01:29:13.678Z,72.99
2016-03-13T01:30:14.493Z,73.09
2016-03-13T01:31:13.652Z,72.99
2016-03-13T01:32:13.655Z,72.99
2016-03-13T01:33:14.891Z,72.9
2016-03-13T01:34:13.629Z,72.71
2016-03-13T01:35:13.615Z,72.86
2016-03-13T01:36:13.602Z,72.67
2016-03-13T01:37:13.591Z,72.96
2016-03-13T01:38:14.233Z,73.18
2016-03-13T01:39:13.564Z,73.33
2016-03-13T01:40:13.551Z,73.24
2016-03-13T01:41:13.538Z,73.33
2016-03-13T01:42:27.712Z,73.33
2016-03-13T01:43:13.512Z,73.62
2016-03-13T01:44:14.171Z,73.47
2016-03-13T01:45:13.502Z,73.14
2016-03-13T01:46:13.490Z,73.33
2016-03-13T01:47:13.460Z,73.24
2016-03-13T01:48:14.010Z,73.28
2016-03-13T01:49:13.451Z,73.56
2016-03-13T01:50:13.437Z,73.66
2016-03-13T01:51:13.425Z,73.37
2016-03-13T01:52:13.411Z,73.47
2016-03-13T01:53:13.398Z,73.47
2016-03-13T01:54:13.386Z,73.28
2016-03-13T01:55:13.356Z,73.37
2016-03-13T01:56:13.360Z,72.85
2016-03-13T01:57:13.347Z,72.85
2016-03-13T01:58:13.350Z,73.03
2016-03-13T01:59:13.321Z,73.03
2016-03-13T02:00:13.324Z,73.22
2016-03-13T02:01:13.295Z,73.13
2016-03-13T02:02:13.297Z,73.32
2016-03-13T02:03:13.269Z,72.94
2016-03-13T02:04:13.256Z,72.85
2016-03-13T02:05:13.259Z,72.94
2016-03-13T02:06:13.246Z,72.94
2016-03-13T02:07:13.233Z,72.66
2016-03-13T02:08:13.221Z,72.56
2016-03-13T02:09:13.223Z,72.94
2016-03-13T02:10:13.194Z,72.75
2016-03-13T02:11:13.182Z,72.66
2016-03-13T02:12:13.168Z,72.09
2016-03-13T02:13:13.171Z,71.8
2016-03-13T02:14:13.142Z,72.18
2016-03-13T02:15:13.146Z,72.09
2016-03-13T02:16:13.117Z,71.99
2016-03-13T02:17:13.104Z,72.18
2016-03-13T02:18:13.091Z,71.99
2016-03-13T02:19:13.078Z,71.9
2016-03-13T02:20:13.081Z,71.8
2016-03-13T02:21:13.068Z,72.09
2016-03-13T02:22:13.070Z,71.9
2016-03-13T02:23:13.042Z,72.18
2016-03-13T02:24:13.028Z,71.9
2016-03-13T02:25:13.016Z,71.8
2016-03-13T02:26:13.019Z,71.61
2016-03-13T02:27:12.990Z,71.42
2016-03-13T02:28:12.993Z,71.42
2016-03-13T02:29:12.964Z,71.65
2016-03-13T02:30:12.967Z,71.33
2016-03-13T02:31:12.953Z,71.08
2016-03-13T02:32:12.941Z,71.55
2016-03-13T02:33:12.927Z,71.46
2016-03-13T02:34:12.916Z,71.17
2016-03-13T02:35:12.903Z,70.89
2016-03-13T02:36:14.185Z,71.17
2016-03-13T02:37:13.533Z,71.36
2016-03-13T02:38:12.864Z,71.27
2016-03-13T02:39:12.850Z,71.17
2016-03-13T02:40:12.838Z,71.36
2016-03-13T02:41:12.824Z,70.79
2016-03-13T02:42:13.233Z,70.98
2016-03-13T02:43:13.127Z,70.7
2016-03-13T02:44:13.005Z,70.98
2016-03-13T02:45:12.788Z,70.79
2016-03-13T02:46:12.869Z,70.61
2016-03-13T02:47:13.340Z,70.79
2016-03-13T02:48:12.921Z,70.7
2016-03-13T02:49:12.768Z,70.51
2016-03-13T02:50:12.739Z,71.08
2016-03-13T02:51:13.304Z,70.89
2016-03-13T02:52:13.526Z,71.08
2016-03-13T02:53:12.700Z,70.61
2016-03-13T02:54:12.687Z,70.51
2016-03-13T02:55:12.675Z,70.51
2016-03-13T02:56:13.318Z,70.61
2016-03-13T02:57:12.556Z,70.61
2016-03-13T02:58:12.651Z,70.51
2016-03-13T02:59:12.623Z,70.32
2016-03-13T03:00:12.626Z,70.32
2016-03-13T03:02:12.584Z,70.51
2016-03-13T03:03:27.572Z,70.51
2016-03-13T03:04:12.575Z,70.51
2016-03-13T03:05:12.983Z,70.51
2016-03-13T03:06:12.845Z,70.32
2016-03-13T03:07:12.566Z,70.51
2016-03-13T03:08:12.522Z,70.32
2016-03-13T03:09:12.525Z,70.51
2016-03-13T03:10:12.527Z,70.32
2016-03-13T03:11:12.483Z,70.48
2016-03-13T03:12:12.346Z,70.7
2016-03-13T03:13:12.473Z,70.7
2016-03-13T03:14:12.476Z,70.61
2016-03-13T03:15:12.463Z,70.61
2016-03-13T03:16:12.449Z,70.61
2016-03-13T03:17:12.437Z,70.7
2016-03-13T03:18:12.423Z,70.61
2016-03-13T03:19:12.426Z,70.51
2016-03-13T03:20:12.414Z,70.32
2016-03-13T03:21:12.385Z,70.32
2016-03-13T03:22:12.387Z,70.7
2016-03-13T03:23:12.390Z,70.51
2016-03-13T03:24:12.362Z,70.14
2016-03-13T03:25:12.348Z,70.79
2016-03-13T03:26:12.336Z,69.95
2016-03-13T03:27:12.183Z,69.95
2016-03-13T03:28:12.310Z,70.23
2016-03-13T03:29:12.298Z,70.14
2016-03-13T03:30:12.284Z,70.23
2016-03-13T03:31:12.287Z,70.23
2016-03-13T03:32:11.540Z,70.14
2016-03-13T03:33:12.245Z,69.95
2016-03-13T03:34:12.248Z,69.57
2016-03-13T03:35:12.220Z,69.66
2016-03-13T03:36:12.222Z,69.57
2016-03-13T03:37:12.210Z,69.57
2016-03-13T03:38:12.213Z,69.85
2016-03-13T03:39:12.184Z,69.47
2016-03-13T03:40:12.186Z,69.66
2016-03-13T03:41:12.174Z,69.76
2016-03-13T03:42:12.160Z,69.38
2016-03-13T03:43:12.147Z,69.76
2016-03-13T03:44:12.150Z,69.76
2016-03-13T03:45:12.121Z,69.57
2016-03-13T03:46:12.109Z,69.72
2016-03-13T03:47:12.112Z,69.95
2016-03-13T03:48:12.098Z,69.76
2016-03-13T03:49:12.085Z,69.66
2016-03-13T03:50:12.073Z,69.47
2016-03-13T03:51:12.075Z,69.57
2016-03-13T03:52:12.062Z,69.57
2016-03-13T03:53:12.048Z,69.57
2016-03-13T03:54:12.036Z,69.38
2016-03-13T03:56:12.620Z,69.57
2016-03-13T03:57:11.981Z,69.57
2016-03-13T03:58:12.156Z,69.57
2016-03-13T03:59:12.034Z,69.53
2016-03-13T04:00:11.958Z,69.76
2016-03-13T04:01:12.539Z,69.76
2016-03-13T04:02:11.933Z,69.66
2016-03-13T04:03:11.936Z,69.76
2016-03-13T04:04:11.908Z,69.57
2016-03-13T04:05:11.988Z,69.66
2016-03-13T04:06:12.397Z,69.47
2016-03-13T04:07:12.150Z,69.66
2016-03-13T04:08:11.871Z,69.38
2016-03-13T04:09:12.374Z,69.09
2016-03-13T04:10:12.299Z,69.28
2016-03-13T04:11:12.488Z,69.19
2016-03-13T04:13:11.807Z,69.28
2016-03-13T04:14:11.809Z,69.28
2016-03-13T04:15:12.233Z,69.47
2016-03-13T04:16:11.783Z,69.47
2016-03-13T04:17:11.770Z,69.09
2016-03-13T04:18:11.757Z,69.09
2016-03-13T04:19:11.744Z,69.19
2016-03-13T04:20:25.918Z,68.81
2016-03-13T04:23:11.708Z,69.09
2016-03-13T04:24:11.695Z,69.09
2016-03-13T04:25:11.682Z,68.81
2016-03-13T04:26:11.669Z,69.09
2016-03-13T04:27:11.720Z,69.19
2016-03-13T04:28:11.659Z,69.09
2016-03-13T04:29:11.631Z,68.52
2016-03-13T04:30:11.634Z,68.62
2016-03-13T04:31:11.620Z,68.24
2016-03-13T04:32:11.608Z,68.62
2016-03-13T04:33:11.595Z,68.43
2016-03-13T04:34:11.567Z,68.43
2016-03-13T04:35:11.569Z,68.62
2016-03-13T04:36:11.556Z,68.52
2016-03-13T04:37:11.543Z,69
2016-03-13T04:38:11.530Z,69.09
2016-03-13T04:39:11.533Z,69.19
2016-03-13T04:40:11.504Z,69.09
2016-03-13T04:41:11.507Z,68.9
2016-03-13T04:42:11.478Z,68.9
2016-03-13T04:43:11.480Z,68.9
2016-03-13T04:44:11.468Z,68.9
2016-03-13T04:45:11.471Z,69.09
2016-03-13T04:46:11.441Z,68.81
2016-03-13T04:47:11.429Z,69
2016-03-13T04:48:11.432Z,68.9
2016-03-13T04:49:11.418Z,69.09
2016-03-13T04:50:11.406Z,69
2016-03-13T04:51:11.408Z,69
2016-03-13T04:52:11.379Z,68.9
2016-03-13T04:53:11.382Z,68.24
2016-03-13T04:54:11.370Z,68.62
2016-03-13T04:55:11.356Z,68.52
2016-03-13T04:56:11.343Z,68.9
2016-03-13T04:57:11.346Z,68.52
2016-03-13T04:58:11.302Z,68.33
2016-03-13T04:59:11.289Z,68.15
2016-03-13T05:00:11.292Z,67.77
2016-03-13T05:01:11.295Z,67.96
2016-03-13T05:02:11.267Z,68.33
2016-03-13T05:03:11.269Z,68.24
2016-03-13T05:04:11.256Z,67.77
2016-03-13T05:05:11.243Z,67.68
2016-03-13T05:06:11.058Z,68.05
2016-03-13T05:07:11.233Z,67.96
2016-03-13T05:08:11.205Z,67.49
2016-03-13T05:09:11.191Z,67.3
2016-03-13T05:10:11.178Z,67.2
2016-03-13T05:11:11.181Z,67.11
2016-03-13T05:12:11.152Z,67.3
2016-03-13T05:13:11.155Z,67.58
2016-03-13T05:14:11.939Z,67.3
2016-03-13T05:15:11.551Z,67.49
2016-03-13T05:16:11.101Z,67.49
2016-03-13T05:17:11.119Z,67.77
2016-03-13T05:18:11.559Z,67.01
2016-03-13T05:19:11.124Z,66.92
2016-03-13T05:20:11.080Z,66.92
2016-03-13T05:21:11.067Z,67.01
2016-03-13T05:22:11.242Z,67.11
2016-03-13T05:23:11.041Z,66.92
2016-03-13T05:24:11.028Z,67.11
2016-03-13T05:25:11.015Z,66.53
2016-03-13T05:26:11.002Z,67.49
2016-03-13T05:27:10.989Z,67.2
2016-03-13T05:28:11.039Z,66.44
2016-03-13T05:29:10.963Z,66.53
2016-03-13T05:30:10.997Z,66.25
2016-03-13T05:31:25.125Z,66.53
2016-03-13T05:32:10.940Z,66.35
2016-03-13T05:33:10.927Z,66.25
2016-03-13T05:34:25.102Z,66.35
2016-03-13T05:35:10.902Z,66.63
2016-03-13T05:36:10.889Z,66.44
2016-03-13T05:37:10.876Z,66.35
2016-03-13T05:38:10.878Z,66.44
2016-03-13T05:40:11.603Z,65.78
2016-03-13T05:41:11.136Z,65.88
2016-03-13T05:42:10.827Z,66.16
2016-03-13T05:43:10.955Z,65.97
2016-03-13T05:44:11.097Z,65.59
2016-03-13T05:45:10.788Z,66.16
2016-03-13T05:46:10.808Z,66.06
2016-03-13T05:47:10.778Z,65.69
2016-03-13T05:48:10.766Z,65.59
2016-03-13T05:49:10.818Z,65.5
2016-03-13T05:50:10.727Z,65.21
2016-03-13T05:51:10.714Z,65.21
2016-03-13T05:52:10.716Z,65.31
2016-03-13T05:53:10.688Z,65.4
2016-03-13T05:54:10.675Z,65.12
2016-03-13T05:55:10.678Z,65.4
2016-03-13T05:56:10.665Z,65.02
2016-03-13T05:57:10.652Z,65.21
2016-03-13T05:58:10.639Z,64.64
2016-03-13T05:59:10.631Z,64.74
2016-03-13T06:00:10.618Z,64.83
2016-03-13T06:01:10.605Z,65.21
2016-03-13T06:02:10.592Z,64.93
2016-03-13T06:03:10.595Z,64.36
2016-03-13T06:04:10.567Z,64.64
2016-03-13T06:05:10.569Z,64.07
2016-03-13T06:06:10.556Z,64.07
2016-03-13T06:07:10.540Z,64.07
2016-03-13T06:08:10.528Z,64.45
2016-03-13T06:09:10.531Z,64.36
2016-03-13T06:10:10.501Z,64.36
2016-03-13T06:11:10.504Z,64.26
2016-03-13T06:12:10.507Z,64.45
2016-03-13T06:13:10.479Z,64.45
2016-03-13T06:14:10.481Z,64.64
2016-03-13T06:15:10.469Z,64.26
2016-03-13T06:16:10.440Z,64.26
2016-03-13T06:17:10.442Z,63.89
2016-03-13T06:18:10.414Z,63.89
2016-03-13T06:19:10.417Z,63.6
2016-03-13T06:20:10.388Z,63.42
2016-03-13T06:21:10.391Z,63.6
2016-03-13T06:22:10.362Z,63.42
2016-03-13T06:23:10.365Z,63.7
2016-03-13T06:24:10.352Z,63.42
2016-03-13T06:25:10.354Z,63.42
2016-03-13T06:26:10.341Z,63.6
2016-03-13T06:27:10.313Z,63.7
2016-03-13T06:28:10.299Z,63.89
2016-03-13T06:29:10.302Z,63.98
2016-03-13T06:30:10.290Z,63.73
2016-03-13T06:31:10.276Z,63.26
2016-03-13T06:32:10.264Z,63.35
2016-03-13T06:33:10.892Z,63.16
2016-03-13T06:34:10.253Z,62.97
2016-03-13T06:35:10.240Z,63.07
2016-03-13T06:36:10.525Z,62.88
2016-03-13T06:37:10.558Z,62.69
2016-03-13T06:38:10.217Z,63.07
2016-03-13T06:39:10.204Z,62.69
2016-03-13T06:40:10.206Z,62.78
2016-03-13T06:41:10.304Z,62.78
2016-03-13T06:42:10.181Z,62.5
2016-03-13T06:43:11.731Z,62.21
2016-03-13T06:44:10.140Z,62.69
2016-03-13T06:45:10.127Z,62.4
2016-03-13T06:46:10.130Z,62.4
2016-03-13T06:47:10.945Z,62.12
2016-03-13T06:48:10.119Z,62.21
2016-03-13T06:49:10.091Z,62.4
2016-03-13T06:50:11.187Z,62.21
2016-03-13T06:51:10.062Z,61.93
2016-03-13T06:52:10.049Z,62.21
2016-03-13T06:53:10.461Z,62.12
2016-03-13T06:54:09.914Z,62.31
2016-03-13T06:55:10.041Z,62.31
2016-03-13T06:56:10.013Z,62.5
2016-03-13T06:57:10.016Z,61.93
2016-03-13T06:58:10.018Z,62.12
2016-03-13T06:59:10.602Z,62.12
2016-03-13T07:00:10.230Z,61.36
2016-03-13T07:01:09.980Z,61.36
2016-03-13T07:02:09.968Z,61.08
2016-03-13T07:03:10.001Z,60.99
2016-03-13T07:04:10.241Z,60.89
2016-03-13T07:05:09.913Z,60.99
2016-03-13T07:06:10.071Z,60.99
2016-03-13T07:07:09.902Z,60.99
2016-03-13T07:08:09.890Z,60.7
2016-03-13T07:09:09.876Z,60.7
2016-03-13T07:10:09.895Z,61.18
2016-03-13T07:11:09.866Z,61.08
2016-03-13T07:12:09.853Z,60.89
2016-03-13T07:13:09.856Z,60.7
2016-03-13T07:14:09.828Z,60.7
2016-03-13T07:15:09.830Z,60.8
2016-03-13T07:16:09.801Z,60.99
2016-03-13T07:17:09.804Z,61.08
2016-03-13T07:18:09.791Z,60.32
2016-03-13T07:19:09.794Z,60.22
2016-03-13T07:20:09.765Z,60.06
2016-03-13T07:21:09.783Z,60.44
2016-03-13T07:22:09.755Z,60.44
2016-03-13T07:23:09.741Z,60.16
2016-03-13T07:24:09.760Z,60.16
2016-03-13T07:25:09.716Z,60.51
2016-03-13T07:26:09.702Z,60.16
2016-03-13T07:27:09.706Z,60.25
2016-03-13T07:28:09.693Z,60.22
2016-03-13T07:29:09.680Z,60.64
2016-03-13T07:30:09.683Z,59.69
2016-03-13T07:31:09.513Z,59.88
2016-03-13T07:32:09.657Z,59.78
2016-03-13T07:33:09.644Z,59.78
2016-03-13T07:34:09.632Z,59.22
2016-03-13T07:35:09.618Z,59.59
2016-03-13T07:36:09.621Z,59.31
2016-03-13T07:37:09.607Z,59.12
2016-03-13T07:38:09.595Z,59.31
2016-03-13T07:39:09.598Z,58.93
2016-03-13T07:40:09.569Z,59.31
2016-03-13T07:41:09.572Z,59.31
2016-03-13T07:42:09.559Z,59.41
2016-03-13T07:43:09.545Z,58.84
2016-03-13T07:44:09.548Z,58.26
2016-03-13T07:45:09.535Z,58.74
2016-03-13T07:46:09.522Z,59.12
2016-03-13T07:47:09.509Z,59.03
2016-03-13T07:48:09.496Z,58.36
2016-03-13T07:49:09.483Z,58.36
2016-03-13T07:50:09.471Z,58.74
2016-03-13T07:51:09.458Z,58.55
2016-03-13T07:52:09.461Z,58.26
2016-03-13T07:53:09.448Z,58.74
2016-03-13T07:54:10.232Z,58.74
2016-03-13T07:55:09.516Z,58.45
2016-03-13T07:56:10.222Z,58.93
2016-03-13T07:57:10.068Z,58.36
2016-03-13T07:58:09.414Z,58.45
2016-03-13T07:59:09.385Z,58.84
2016-03-13T08:00:09.388Z,58.17
2016-03-13T08:01:09.376Z,58.36
2016-03-13T08:02:10.818Z,59.03
2016-03-13T08:03:09.334Z,58.26
2016-03-13T08:04:09.352Z,58.84
2016-03-13T08:05:09.324Z,58.43
2016-03-13T08:06:09.843Z,58.71
2016-03-13T08:07:09.313Z,58.62
2016-03-13T08:08:09.316Z,58.55
2016-03-13T08:09:09.803Z,59.31
2016-03-13T08:10:09.415Z,58.55
2016-03-13T08:11:09.262Z,58.45
2016-03-13T08:12:09.264Z,58.17
2016-03-13T08:13:09.267Z,58.17
2016-03-13T08:14:09.254Z,58.26
2016-03-13T08:15:09.226Z,58.07
2016-03-13T08:16:09.228Z,58.17
2016-03-13T08:17:09.215Z,58.36
2016-03-13T08:18:09.203Z,58.45
2016-03-13T08:19:09.189Z,58.36
2016-03-13T08:20:09.177Z,58.36
2016-03-13T08:21:09.539Z,58.36
2016-03-13T08:22:09.869Z,58.45
2016-03-13T08:23:09.185Z,58.45
2016-03-13T08:24:09.140Z,58.07
2016-03-13T08:25:09.158Z,58.26
2016-03-13T08:26:09.130Z,58.17
2016-03-13T08:27:09.132Z,57.79
2016-03-13T08:28:08.964Z,57.98
2016-03-13T08:29:09.107Z,57.98
2016-03-13T08:30:09.094Z,57.6
2016-03-13T08:31:09.097Z,57.6
2016-03-13T08:32:09.068Z,57.89
2016-03-13T08:33:09.071Z,57.7
2016-03-13T08:34:09.057Z,57.79
2016-03-13T08:35:09.045Z,57.89
2016-03-13T08:36:09.047Z,58.17
2016-03-13T08:37:09.005Z,58.07
2016-03-13T08:38:09.009Z,57.6
2016-03-13T08:39:08.983Z,57.7
2016-03-13T08:40:08.940Z,57.6
2016-03-13T08:41:08.929Z,57.23
2016-03-13T08:42:08.912Z,57.73
2016-03-13T08:43:08.894Z,57.51
2016-03-13T08:44:08.875Z,57.6
2016-03-13T08:45:08.863Z,57.51
2016-03-13T08:46:08.845Z,57.04
2016-03-13T08:47:08.830Z,57.6
2016-03-13T08:48:08.831Z,57.51
2016-03-13T08:49:08.816Z,57.51
2016-03-13T08:50:08.801Z,57.51
2016-03-13T08:51:08.786Z,57.32
2016-03-13T08:52:08.788Z,57.23
2016-03-13T08:53:08.774Z,57.23
2016-03-13T08:54:08.761Z,57.23
2016-03-13T08:55:08.762Z,56.85
2016-03-13T08:56:08.749Z,56.85
2016-03-13T08:57:08.735Z,57.13
2016-03-13T08:58:08.721Z,57.25
2016-03-13T08:59:08.709Z,57.25
2016-03-13T09:00:08.696Z,57.16
2016-03-13T09:01:08.682Z,56.87
2016-03-13T09:02:08.684Z,56.68
2016-03-13T09:03:08.687Z,56.68
2016-03-13T09:04:08.675Z,56.68
2016-03-13T09:05:08.662Z,56.68
2016-03-13T09:06:08.665Z,56.87
2016-03-13T09:07:08.643Z,56.4
2016-03-13T09:08:08.630Z,56.12
2016-03-13T09:09:08.617Z,56.3
2016-03-13T09:10:08.620Z,56.12
2016-03-13T09:11:08.607Z,56.68
2016-03-13T09:12:08.593Z,56.21
2016-03-13T09:14:09.084Z,56.21
2016-03-13T09:15:09.492Z,55.93
2016-03-13T09:16:09.401Z,55.64
2016-03-13T09:17:09.185Z,55.83
2016-03-13T09:18:08.548Z,55.83
2016-03-13T09:19:08.534Z,55.74
2016-03-13T09:20:08.537Z,55.74
2016-03-13T09:21:09.883Z,55.93
2016-03-13T09:22:08.512Z,55.64
2016-03-13T09:23:08.842Z,55.86
2016-03-13T09:24:08.611Z,55.57
2016-03-13T09:25:08.488Z,55.17
2016-03-13T09:26:08.975Z,55.64
2016-03-13T09:27:09.430Z,55.57
2016-03-13T09:28:08.761Z,55.29
2016-03-13T09:29:09.249Z,55.19
2016-03-13T09:30:08.455Z,55.19
2016-03-13T09:31:08.427Z,55.29
2016-03-13T09:32:08.413Z,55.29
2016-03-13T09:33:08.963Z,55
2016-03-13T09:34:08.403Z,55.19
2016-03-13T09:35:08.233Z,54.91
2016-03-13T09:36:08.393Z,55.1
2016-03-13T09:37:08.380Z,55
2016-03-13T09:38:08.632Z,55
2016-03-13T09:39:08.369Z,54.91
2016-03-13T09:41:08.360Z,54.63
2016-03-13T09:42:08.346Z,54.82
2016-03-13T09:43:08.334Z,54.72
2016-03-13T09:44:08.321Z,54.72
2016-03-13T09:45:08.307Z,54.82
2016-03-13T09:46:08.295Z,54.15
2016-03-13T09:47:08.313Z,54.15
2016-03-13T09:48:08.285Z,54.15
2016-03-13T09:49:08.303Z,54.06
2016-03-13T09:50:08.274Z,54.22
2016-03-13T09:51:08.276Z,54.41
2016-03-13T09:52:08.248Z,54.41
2016-03-13T09:53:08.297Z,54.44
2016-03-13T09:54:08.239Z,53.96
2016-03-13T09:55:08.241Z,53.96
2016-03-13T09:56:08.228Z,54.06
2016-03-13T09:57:08.215Z,53.77
2016-03-13T09:58:08.217Z,53.87
2016-03-13T09:59:08.189Z,53.58
2016-03-13T10:00:08.208Z,53.49
2016-03-13T10:01:08.194Z,53.75
2016-03-13T10:02:08.181Z,53.77
2016-03-13T10:03:08.183Z,53.37
2016-03-13T10:04:08.171Z,53.68
2016-03-13T10:05:08.158Z,53.58
2016-03-13T10:06:08.146Z,53.77
2016-03-13T10:07:08.133Z,53.49
2016-03-13T10:08:08.135Z,53.02
2016-03-13T10:09:08.107Z,53.02
2016-03-13T10:10:08.109Z,52.83
2016-03-13T10:11:08.112Z,53.3
2016-03-13T10:12:08.115Z,53.3
2016-03-13T10:13:08.086Z,53.68
2016-03-13T10:14:08.088Z,53.11
2016-03-13T10:15:08.091Z,52.83
2016-03-13T10:16:08.048Z,52.45
2016-03-13T10:17:08.065Z,52.83
2016-03-13T10:18:08.053Z,52.64
2016-03-13T10:19:08.070Z,52.47
2016-03-13T10:20:08.026Z,52.28
2016-03-13T10:21:08.029Z,52.16
2016-03-13T10:22:08.016Z,52.16
2016-03-13T10:23:08.019Z,52.54
2016-03-13T10:24:08.006Z,52.35
2016-03-13T10:25:08.009Z,52.64
2016-03-13T10:26:07.981Z,52.16
2016-03-13T10:27:07.998Z,52.35
2016-03-13T10:28:07.970Z,52.45
2016-03-13T10:29:07.957Z,52.26
2016-03-13T10:30:07.960Z,52.16
2016-03-13T10:31:08.041Z,52.26
2016-03-13T10:32:07.933Z,52.26
2016-03-13T10:33:09.155Z,52.35
2016-03-13T10:34:07.908Z,52.73
2016-03-13T10:35:07.911Z,52.26
2016-03-13T10:36:07.897Z,52.35
2016-03-13T10:37:07.916Z,52.26
2016-03-13T10:38:07.902Z,52.26
2016-03-13T10:39:07.890Z,52.35
2016-03-13T10:40:07.877Z,52.45
2016-03-13T10:41:08.552Z,52.16
2016-03-13T10:42:09.196Z,52.26
2016-03-13T10:43:09.041Z,52.54
2016-03-13T10:44:08.701Z,51.97
2016-03-13T10:45:07.844Z,51.87
2016-03-13T10:46:09.049Z,51.78
2016-03-13T10:47:07.927Z,51.68
2016-03-13T10:48:07.821Z,51.59
2016-03-13T10:49:07.807Z,51.5
2016-03-13T10:50:07.810Z,52
2016-03-13T10:51:07.781Z,51.62
2016-03-13T10:52:07.784Z,51.33
2016-03-13T10:53:08.006Z,51.52
2016-03-13T10:54:07.775Z,51.52
2016-03-13T10:55:07.746Z,51.24
2016-03-13T10:56:08.217Z,51.62
2016-03-13T10:58:08.286Z,51.24
2016-03-13T10:59:07.726Z,51.43
2016-03-13T11:00:07.728Z,51.4
2016-03-13T11:01:08.168Z,51.52
2016-03-13T11:02:07.702Z,51.14
2016-03-13T11:03:07.689Z,51.43
2016-03-13T11:04:07.692Z,51.33
2016-03-13T11:05:07.679Z,51.52
2016-03-13T11:06:07.697Z,51.33
2016-03-13T11:07:07.669Z,51.24
2016-03-13T11:08:07.671Z,51.5
2016-03-13T11:09:07.643Z,51.43
2016-03-13T11:10:07.630Z,51.33
2016-03-13T11:11:07.632Z,51.14
2016-03-13T11:12:07.619Z,51.33
2016-03-13T11:13:07.622Z,51.5
2016-03-13T11:14:07.609Z,51.4
2016-03-13T11:15:07.612Z,51.31
2016-03-13T11:16:07.598Z,51.4
2016-03-13T11:17:07.586Z,51.5
2016-03-13T11:18:07.573Z,51.4
2016-03-13T11:19:07.576Z,51.68
2016-03-13T11:20:07.563Z,51.87
2016-03-13T11:21:07.566Z,51.97
2016-03-13T11:22:07.537Z,51.68
2016-03-13T11:23:07.556Z,51.4
2016-03-13T11:24:07.526Z,51.59
2016-03-13T11:25:07.529Z,51.4
2016-03-13T11:26:07.501Z,51.52
2016-03-13T11:27:07.503Z,51.14
2016-03-13T11:28:07.491Z,50.93
2016-03-13T11:29:07.494Z,51.03
2016-03-13T11:30:07.480Z,51.03
2016-03-13T11:31:07.483Z,51.5
2016-03-13T11:32:07.470Z,51.4
2016-03-13T11:33:07.458Z,51.43
2016-03-13T11:34:07.445Z,51.21
2016-03-13T11:35:07.447Z,51.31
2016-03-13T11:36:07.434Z,51.12
2016-03-13T11:37:07.422Z,51.5
2016-03-13T11:38:07.425Z,51.21
2016-03-13T11:39:07.411Z,51.4
2016-03-13T11:40:07.414Z,51.21
2016-03-13T11:41:07.402Z,51.24
2016-03-13T11:42:07.404Z,51.05
2016-03-13T11:43:07.375Z,50.76
2016-03-13T11:44:07.378Z,50.67
2016-03-13T11:45:07.365Z,50.67
2016-03-13T11:46:07.383Z,50.76
2016-03-13T11:47:07.338Z,50.67
2016-03-13T11:48:07.341Z,50.93
2016-03-13T11:49:07.329Z,51.03
2016-03-13T11:50:08.034Z,51.03
2016-03-13T11:51:07.990Z,50.93
2016-03-13T11:52:07.321Z,51.03
2016-03-13T11:53:08.480Z,51.03
2016-03-13T11:54:07.295Z,50.93
2016-03-13T11:55:07.282Z,51.31
2016-03-13T11:56:07.488Z,51.5
2016-03-13T11:57:07.272Z,51.59
2016-03-13T11:58:07.275Z,51.5
2016-03-13T11:59:07.465Z,51.4
2016-03-13T12:01:07.252Z,51.5
2016-03-13T12:02:07.396Z,51.5
2016-03-13T12:03:07.242Z,51.59
2016-03-13T12:04:07.042Z,51.78
2016-03-13T12:05:08.185Z,51.87
2016-03-13T12:06:08.047Z,51.59
2016-03-13T12:07:07.456Z,51.68
2016-03-13T12:09:21.352Z,51.68
2016-03-13T12:10:07.525Z,51.68
2016-03-13T12:11:07.153Z,51.5
2016-03-13T12:12:07.141Z,51.59
2016-03-13T12:13:07.128Z,51.78
2016-03-13T12:14:07.162Z,51.78
2016-03-13T12:15:07.758Z,51.78
2016-03-13T12:16:07.121Z,51.68
2016-03-13T12:17:07.123Z,51.78
2016-03-13T12:18:07.844Z,51.87
2016-03-13T12:19:07.082Z,51.59
2016-03-13T12:20:07.085Z,51.78
2016-03-13T12:21:07.102Z,51.97
2016-03-13T12:22:07.058Z,51.68
2016-03-13T12:23:07.046Z,51.4
2016-03-13T12:24:07.049Z,51.4
2016-03-13T12:25:07.051Z,51.68
2016-03-13T12:26:07.038Z,51.78
2016-03-13T12:27:07.009Z,51.78
2016-03-13T12:28:07.028Z,51.78
2016-03-13T12:29:06.999Z,51.68
2016-03-13T12:30:07.001Z,51.68
2016-03-13T12:31:06.990Z,51.78
2016-03-13T12:32:06.976Z,51.68
2016-03-13T12:33:06.979Z,51.5
2016-03-13T12:34:06.966Z,51.5
2016-03-13T12:35:06.968Z,51.87
2016-03-13T12:36:06.956Z,51.59
2016-03-13T12:37:06.942Z,51.4
2016-03-13T12:38:06.930Z,51.31
2016-03-13T12:39:06.933Z,51.5
2016-03-13T12:40:06.935Z,50.93
2016-03-13T12:41:06.922Z,51.31
2016-03-13T12:42:06.909Z,51.14
2016-03-13T12:43:06.881Z,51.14
2016-03-13T12:44:06.883Z,50.86
2016-03-13T12:45:06.870Z,50.95
2016-03-13T12:46:06.873Z,50.95
2016-03-13T12:47:06.860Z,51.05
2016-03-13T12:48:06.863Z,50.67
2016-03-13T12:49:06.849Z,50.86
2016-03-13T12:50:06.838Z,50.67
2016-03-13T12:51:06.840Z,50.86
2016-03-13T12:52:06.810Z,50.67
2016-03-13T12:53:06.814Z,50.57
2016-03-13T12:54:06.801Z,50.86
2016-03-13T12:55:06.804Z,50.95
2016-03-13T12:56:06.807Z,50.57
2016-03-13T12:57:06.777Z,50.67
2016-03-13T12:58:06.780Z,50.67
2016-03-13T12:59:07.017Z,50.57
2016-03-13T13:00:06.770Z,50.67
2016-03-13T13:01:06.757Z,50.57
2016-03-13T13:02:06.760Z,50.57
2016-03-13T13:03:06.748Z,50.38
2016-03-13T13:04:06.718Z,50.67
2016-03-13T13:05:06.737Z,50.67
2016-03-13T13:06:06.723Z,50.76
2016-03-13T13:07:06.711Z,51.05
2016-03-13T13:08:06.714Z,50.67